Terminal Aerodrome Forecast
Issued by NWS

Home | Current Version | Previous Version | Text Only | Print | Product List | Glossary On
Versions: 1 2 3 4 5 6 7 8 9 10 11 12 13 14 15 16 17 18 19 20 21 22 23 24 25 26 27 28 29 30 31 32 33 34 35 36 37 38 39 40
000
FTUS43 KGRB 201131
TAFATW
TAF
KATW 201131Z 2012/2112 25009KT P6SM SCT025 BKN100
     FM201400 28006KT P6SM SCT025
     FM201800 29007KT P6SM SKC
     FM210100 31005KT P6SM SCT250
      TEMPO 2108/2112 4SM BR SCT005=

USA.gov is the U.S. government's official web portal to all federal, state and local government web resources and services.